Time;durP1;ratioP1;P1;durP2;ratioP2;P2;SDS_P1;SDS_P2;PMS_P1;PMS_P2;Temp;Humidity;BMP_temperature;BMP_pressure;BME280_temperature;BME280_humidity;BME280_pressure;Samples;Min_cycle;Max_cycle;Signal;HPM_P1;HPM_P2
2022/02/24 00:01:33;;;;;;;5.50;2.80;;;;;;;3.06;80.48;99119.13;104744;1274;74234;-23
2022/02/24 00:04:02;;;;;;;3.30;2.30;;;;;;;3.15;80.04;99120.55;104664;1274;76021;-23
2022/02/24 00:06:31;;;;;;;5.80;2.10;;;;;;;2.89;80.91;99123.04;104604;1276;74442;-23
2022/02/24 00:09:00;;;;;;;4.10;2.50;;;;;;;2.70;81.95;99124.42;104716;1274;61557;-23
2022/02/24 00:11:28;;;;;;;8.30;2.80;;;;;;;2.52;82.62;99122.91;104720;1275;60986;-23
2022/02/24 00:13:58;;;;;;;5.10;2.50;;;;;;;2.95;81.69;99127.02;104781;1275;75571;-23
2022/02/24 00:16:26;;;;;;;6.40;2.80;;;;;;;3.43;79.56;99132.39;104709;1274;73961;-23
2022/02/24 00:18:55;;;;;;;4.60;2.40;;;;;;;3.32;79.44;99132.61;104690;1274;74637;-23
2022/02/24 00:21:27;;;;;;;7.50;3.10;;;;;;;3.06;80.50;99136.63;104719;1275;61149;-23
2022/02/24 00:23:55;;;;;;;6.00;2.70;;;;;;;2.79;81.72;99137.73;104683;1275;61730;-23
2022/02/24 00:26:24;;;;;;;4.60;2.40;;;;;;;2.76;81.78;99143.16;104726;1274;75348;-23
2022/02/24 00:28:52;;;;;;;7.90;2.50;;;;;;;2.66;82.10;99143.33;104617;1274;75729;-23
2022/02/24 00:31:22;;;;;;;4.90;2.50;;;;;;;3.06;81.18;99145.38;104768;1274;73559;-23
2022/02/24 00:33:51;;;;;;;7.70;2.90;;;;;;;3.46;79.59;99147.36;104761;1274;61068;-23
2022/02/24 00:36:20;;;;;;;5.90;2.70;;;;;;;3.31;79.63;99145.52;104723;1274;61138;-23
2022/02/24 00:38:49;;;;;;;6.90;2.40;;;;;;;3.10;80.82;99145.68;104638;1275;75538;-23
2022/02/24 00:41:21;;;;;;;3.30;2.40;;;;;;;2.88;81.56;99143.67;104592;1275;75854;-23
2022/02/24 00:43:50;;;;;;;7.00;3.30;;;;;;;2.56;82.87;99147.02;104591;1275;74149;-23
2022/02/24 00:46:18;;;;;;;5.00;2.70;;;;;;;2.50;83.57;99147.16;104655;1275;61930;-23
2022/02/24 00:48:47;;;;;;;5.60;2.70;;;;;;;2.89;82.35;99155.24;104701;1275;61054;-23
2022/02/24 00:51:15;;;;;;;8.60;2.90;;;;;;;3.19;80.98;99159.48;104647;1274;74973;-23
2022/02/24 00:53:44;;;;;;;5.20;3.00;;;;;;;3.29;80.59;99155.41;104612;1274;74971;-23
2022/02/24 00:56:14;;;;;;;4.70;2.90;;;;;;;3.10;81.05;99156.82;104617;1275;71553;-23
2022/02/24 00:58:43;;;;;;;4.10;2.40;;;;;;;2.86;81.82;99158.52;104605;1277;61151;-23
2022/02/24 01:01:17;;;;;;;6.70;3.40;;;;;;;2.63;82.83;99161.81;104680;1274;61143;-23
2022/02/24 01:03:46;;;;;;;7.80;3.00;;;;;;;2.74;82.95;99167.42;104760;1274;75323;-23
2022/02/24 01:06:17;;;;;;;8.50;3.30;;;;;;;3.18;81.05;99170.83;104761;1274;73771;-23
2022/02/24 01:08:46;;;;;;;4.30;2.80;;;;;;;3.31;80.20;99175.52;104758;1274;74236;-23
2022/02/24 01:11:14;;;;;;;4.10;2.80;;;;;;;3.11;80.97;99176.52;104773;1274;61182;-23
2022/02/24 01:13:43;;;;;;;7.60;3.30;;;;;;;2.76;82.17;99176.09;104701;1274;61075;-23
2022/02/24 01:16:11;;;;;;;6.20;3.00;;;;;;;2.61;83.03;99180.77;104772;1274;74609;-24
2022/02/24 01:18:40;;;;;;;8.60;3.30;;;;;;;2.56;83.15;99178.23;104729;1274;76016;-23
2022/02/24 01:21:09;;;;;;;5.50;3.30;;;;;;;3.02;82.12;99181.54;104630;1274;74441;-23
2022/02/24 01:23:38;;;;;;;5.30;3.20;;;;;;;3.49;79.73;99182.70;104630;1274;61244;-23
2022/02/24 01:26:07;;;;;;;6.70;3.00;;;;;;;3.37;79.71;99188.28;104743;1275;61019;-23
2022/02/24 01:28:36;;;;;;;6.80;2.80;;;;;;;3.30;80.21;99185.41;104760;1275;75597;-23
2022/02/24 01:31:05;;;;;;;5.00;2.90;;;;;;;3.07;80.81;99184.58;104682;1274;77253;-22
2022/02/24 01:33:34;;;;;;;5.90;3.20;;;;;;;2.77;82.15;99180.71;104719;1274;74318;-23
2022/02/24 01:36:02;;;;;;;3.90;2.50;;;;;;;2.73;82.32;99182.23;104654;1275;61145;-23
2022/02/24 01:38:31;;;;;;;4.40;3.00;;;;;;;3.03;81.64;99179.84;104673;1274;61079;-23
2022/02/24 01:41:00;;;;;;;6.90;3.30;;;;;;;3.56;79.41;99186.31;104682;1277;75550;-23
2022/02/24 01:43:28;;;;;;;5.70;2.70;;;;;;;3.59;78.98;99187.73;104696;1274;76305;-23
2022/02/24 01:45:56;;;;;;;5.80;2.50;;;;;;;3.44;79.20;99188.13;104693;1274;74200;-23
2022/02/24 01:48:30;;;;;;;5.00;2.80;;;;;;;3.14;80.39;99184.77;104640;1274;61076;-23
2022/02/24 01:50:58;;;;;;;6.90;3.60;;;;;;;3.01;80.80;99184.38;104651;1274;61041;-23
2022/02/24 01:53:29;;;;;;;4.40;2.70;;;;;;;2.67;82.40;99182.39;104744;1274;75334;-23
2022/02/24 01:55:57;;;;;;;5.70;3.00;;;;;;;3.11;81.70;99190.91;104755;1274;74070;-24
2022/02/24 01:58:27;;;;;;;7.60;3.10;;;;;;;3.69;78.72;99191.00;104689;1275;72954;-23
2022/02/24 02:01:10;;;;;;;10.10;3.20;;;;;;;3.65;78.44;99196.70;104675;1274;61154;-23
2022/02/24 02:03:40;;;;;;;6.20;3.30;;;;;;;3.47;79.14;99203.77;104746;1274;61725;-23
2022/02/24 02:06:08;;;;;;;7.70;3.60;;;;;;;3.26;79.76;99203.41;104728;1275;75510;-23
2022/02/24 02:08:37;;;;;;;6.50;3.10;;;;;;;3.04;80.59;99203.95;104746;1274;75282;-26
2022/02/24 02:11:05;;;;;;;3.60;2.00;;;;;;;2.94;81.03;99206.67;104713;1274;74444;-25
2022/02/24 02:13:34;;;;;;;4.70;2.60;;;;;;;3.35;80.18;99211.70;104734;1276;61193;-24
2022/02/24 02:16:03;;;;;;;11.20;3.70;;;;;;;3.72;78.32;99210.23;104679;1274;61838;-24
2022/02/24 02:18:33;;;;;;;8.10;3.20;;;;;;;3.61;78.52;99212.34;104616;1275;74066;-25
2022/02/24 02:21:02;;;;;;;4.80;2.60;;;;;;;3.53;78.72;99214.95;104554;1275;76142;-22
2022/02/24 02:23:30;;;;;;;4.60;2.50;;;;;;;3.36;79.16;99212.55;104663;1274;72971;-23
2022/02/24 02:25:58;;;;;;;7.10;3.20;;;;;;;3.12;80.07;99210.93;104741;1275;61268;-22
2022/02/24 02:32:44;;;;;;;5.90;2.00;;;;;;;2.91;81.72;99215.35;103766;1287;75601;-23
2022/02/24 02:35:12;;;;;;;;;;;;;;;3.84;78.66;99217.70;103889;1287;75802;-22
2022/02/24 02:37:41;;;;;;;4.80;2.80;;;;;;;4.00;77.02;99221.17;103853;1286;72747;-23
2022/02/24 02:40:10;;;;;;;6.90;2.70;;;;;;;3.89;77.11;99223.84;103585;1286;61399;-23
2022/02/24 02:42:39;;;;;;;6.00;2.80;;;;;;;3.59;77.69;99226.53;103259;1288;61068;-22
2022/02/24 02:45:08;;;;;;;5.30;2.70;;;;;;;3.28;78.83;99228.87;103559;1287;75282;-22
2022/02/24 02:47:37;;;;;;;3.60;2.00;;;;;;;3.07;79.67;99231.05;103420;1290;74927;-22
2022/02/24 02:50:06;;;;;;;5.10;2.40;;;;;;;2.88;80.39;99230.61;103520;1287;73527;-23
2022/02/24 02:52:35;;;;;;;4.80;3.20;;;;;;;3.21;79.68;99229.55;103427;1289;61427;-22
2022/02/24 02:55:12;;;;;;;4.90;2.30;;;;;;;3.62;78.18;99233.41;103704;1287;61211;-22
2022/02/24 02:57:40;;;;;;;5.40;2.20;;;;;;;3.73;77.37;99236.98;103849;1286;76092;-22
2022/02/24 03:00:11;;;;;;;3.50;2.20;;;;;;;3.62;77.54;99238.74;103897;1286;75957;-23
2022/02/24 03:02:39;;;;;;;4.00;2.00;;;;;;;3.45;78.05;99245.42;103801;1288;74470;-22
2022/02/24 03:05:08;;;;;;;4.60;2.50;;;;;;;3.25;78.42;99247.20;103911;1286;61117;-22
2022/02/24 03:07:38;;;;;;;5.90;3.00;;;;;;;3.07;79.19;99251.66;103957;1284;61114;-22
2022/02/24 03:10:07;;;;;;;4.40;1.70;;;;;;;2.91;80.20;99256.50;104657;1274;75428;-22
2022/02/24 03:12:36;;;;;;;4.70;2.50;;;;;;;3.35;79.70;99258.59;104735;1274;75236;-22
2022/02/24 03:15:09;;;;;;;5.70;2.60;;;;;;;3.91;77.44;99258.94;104804;1274;74142;-23
2022/02/24 03:17:38;;;;;;;6.90;2.60;;;;;;;4.00;76.85;99263.48;104753;1277;61278;-22
2022/02/24 03:20:06;;;;;;;6.10;2.50;;;;;;;3.85;77.04;99263.90;105071;1274;62372;-22
2022/02/24 03:22:37;;;;;;;5.70;2.60;;;;;;;3.64;77.46;99271.42;104739;1275;74473;-22
2022/02/24 03:25:05;;;;;;;6.10;3.00;;;;;;;3.41;78.11;99273.07;105065;1274;76179;-22
2022/02/24 03:27:35;;;;;;;6.60;3.00;;;;;;;3.17;79.15;99276.96;104898;1274;72863;-23
2022/02/24 03:30:04;;;;;;;3.90;2.00;;;;;;;2.99;80.01;99279.32;105084;1274;61789;-22
2022/02/24 03:32:33;;;;;;;5.60;2.80;;;;;;;3.42;79.65;99283.80;104721;1274;61170;-22
2022/02/24 03:35:03;;;;;;;6.80;2.30;;;;;;;3.99;77.53;99286.35;104779;1274;73484;-22
2022/02/24 03:37:31;;;;;;;4.80;2.10;;;;;;;4.02;76.64;99284.84;104732;1275;75927;-22
2022/02/24 03:39:59;;;;;;;5.90;3.30;;;;;;;3.77;77.33;99292.10;105057;1274;73448;-23
2022/02/24 03:42:28;;;;;;;7.30;3.00;;;;;;;3.54;77.96;99291.67;104900;1274;61117;-22
2022/02/24 03:45:00;;;;;;;8.40;3.30;;;;;;;3.26;79.17;99295.39;104660;1276;61845;-22
2022/02/24 03:47:28;;;;;;;4.70;3.10;;;;;;;3.08;79.91;99296.73;105070;1274;75533;-22
2022/02/24 03:50:00;;;;;;;3.50;1.90;;;;;;;2.95;80.35;99299.23;105020;1274;74838;-22
2022/02/24 03:52:28;;;;;;;7.60;2.60;;;;;;;3.45;79.88;99299.27;105124;1274;74204;-22
2022/02/24 03:54:56;;;;;;;6.50;2.70;;;;;;;4.05;77.65;99304.11;105004;1274;61131;-22
2022/02/24 03:57:26;;;;;;;6.30;2.50;;;;;;;4.15;76.75;99299.80;104799;1274;61962;-22
2022/02/24 03:59:54;;;;;;;4.10;2.50;;;;;;;4.01;76.74;99301.23;104783;1274;75541;-22
2022/02/24 04:02:22;;;;;;;7.80;3.00;;;;;;;3.77;77.21;99304.96;105002;1274;75981;-22
2022/02/24 04:04:51;;;;;;;6.10;3.30;;;;;;;3.52;77.53;99308.71;105058;1274;74414;-22
2022/02/24 04:07:21;;;;;;;6.90;3.00;;;;;;;3.28;78.41;99308.14;104917;1274;61150;-23
2022/02/24 04:09:49;;;;;;;3.10;2.10;;;;;;;3.10;79.28;99311.94;105043;1274;62069;-22
2022/02/24 04:12:18;;;;;;;7.70;2.80;;;;;;;3.46;79.20;99314.02;104982;1274;75495;-22
2022/02/24 04:14:49;;;;;;;7.30;2.70;;;;;;;3.98;77.29;99316.45;105061;1274;75981;-22
2022/02/24 04:17:18;;;;;;;6.80;3.10;;;;;;;4.01;76.66;99322.33;105110;1274;74325;-22
2022/02/24 04:19:58;;;;;;;9.10;3.20;;;;;;;3.74;77.16;99325.20;104817;1274;61153;-22
2022/02/24 04:22:26;;;;;;;9.00;2.80;;;;;;;3.46;77.92;99328.43;105046;1274;62075;-22
2022/02/24 04:24:57;;;;;;;9.50;3.40;;;;;;;3.20;78.99;99335.30;105048;1274;75595;-23
2022/02/24 04:27:25;;;;;;;11.20;3.70;;;;;;;2.93;80.32;99340.84;105017;1274;76155;-22
2022/02/24 04:29:53;;;;;;;7.60;3.10;;;;;;;2.72;81.27;99350.98;104788;1275;74268;-22
2022/02/24 04:32:22;;;;;;;8.70;3.00;;;;;;;3.10;81.12;99349.98;104741;1275;61086;-22
2022/02/24 04:34:50;;;;;;;6.20;3.20;;;;;;;3.75;78.75;99347.67;104874;1274;61901;-23
2022/02/24 04:37:19;;;;;;;5.00;2.70;;;;;;;3.86;77.53;99344.02;104588;1277;75709;-22
2022/02/24 04:39:48;;;;;;;7.10;2.70;;;;;;;3.67;77.69;99348.73;104735;1274;76056;-22
2022/02/24 04:42:16;;;;;;;4.00;2.90;;;;;;;3.40;78.54;99356.53;104856;1274;74412;-22
2022/02/24 04:44:45;;;;;;;6.10;3.00;;;;;;;3.16;79.32;99359.52;104810;1274;61148;-22
2022/02/24 04:47:16;;;;;;;6.80;3.50;;;;;;;2.94;80.07;99364.45;104826;1274;61824;-22
2022/02/24 04:49:44;;;;;;;4.00;2.40;;;;;;;2.77;80.68;99366.73;104857;1274;75627;-22
2022/02/24 04:52:13;;;;;;;10.80;2.80;;;;;;;3.23;80.39;99369.31;104781;1274;75730;-22
2022/02/24 04:54:41;;;;;;;5.00;2.90;;;;;;;3.82;78.16;99377.88;104862;1274;74172;-22
2022/02/24 04:57:09;;;;;;;3.60;2.30;;;;;;;3.89;77.33;99380.64;104851;1274;61276;-23
2022/02/24 04:59:39;;;;;;;5.40;2.40;;;;;;;3.77;77.52;99382.45;104840;1274;61184;-22
2022/02/24 05:02:07;;;;;;;5.50;3.10;;;;;;;3.55;77.73;99386.05;104907;1274;75769;-22
2022/02/24 05:04:36;;;;;;;6.10;3.10;;;;;;;3.31;78.32;99388.31;104865;1274;76007;-25
2022/02/24 05:07:05;;;;;;;5.70;3.30;;;;;;;3.08;78.57;99384.20;104697;1274;74445;-24
2022/02/24 05:09:34;;;;;;;4.00;1.80;;;;;;;2.90;79.17;99392.93;104744;1274;62759;-23
2022/02/24 05:12:03;;;;;;;5.20;2.50;;;;;;;3.35;79.21;99393.11;104906;1274;61007;-25
2022/02/24 05:14:32;;;;;;;4.00;2.30;;;;;;;3.92;77.66;99392.67;104725;1274;74557;-23
2022/02/24 05:17:01;;;;;;;5.70;2.90;;;;;;;3.95;77.02;99395.65;104920;1274;75848;-22
2022/02/24 05:19:30;;;;;;;7.40;3.20;;;;;;;3.74;77.20;99401.62;104879;1274;74469;-22
2022/02/24 05:21:59;;;;;;;6.20;3.40;;;;;;;3.49;77.77;99408.14;104849;1274;61153;-24
2022/02/24 05:24:27;;;;;;;7.30;3.40;;;;;;;3.25;78.35;99409.55;104895;1274;61040;-22
2022/02/24 05:26:57;;;;;;;7.70;4.00;;;;;;;3.01;79.18;99414.06;104855;1274;75355;-22
2022/02/24 05:29:26;;;;;;;6.40;3.00;;;;;;;2.84;80.12;99416.83;104920;1274;76143;-22
2022/02/24 05:31:54;;;;;;;5.00;3.40;;;;;;;3.26;79.97;99419.44;104623;1274;74137;-22
2022/02/24 05:34:23;;;;;;;9.50;4.00;;;;;;;3.83;77.98;99421.47;104880;1274;61200;-22
2022/02/24 05:36:56;;;;;;;7.80;3.60;;;;;;;3.88;77.40;99425.19;105120;1274;61055;-22
2022/02/24 05:39:25;;;;;;;6.40;3.60;;;;;;;3.69;77.61;99427.94;104792;1274;75495;-22
2022/02/24 05:41:53;;;;;;;6.60;3.20;;;;;;;3.46;78.53;99433.29;105050;1274;75180;-22
2022/02/24 05:44:22;;;;;;;9.40;4.40;;;;;;;3.21;79.82;99437.35;105132;1274;74291;-22
2022/02/24 05:46:50;;;;;;;8.10;4.40;;;;;;;3.01;80.65;99442.70;104850;1274;61155;-22
2022/02/24 05:49:19;;;;;;;7.90;3.70;;;;;;;2.89;81.25;99442.70;104569;1274;61170;-22
2022/02/24 05:51:47;;;;;;;8.50;3.20;;;;;;;3.36;81.02;99449.04;104760;1273;76020;-22
2022/02/24 05:54:15;;;;;;;11.90;3.20;;;;;;;3.96;78.66;99452.81;104789;1274;73984;-22
2022/02/24 05:56:45;;;;;;;6.40;3.40;;;;;;;4.01;77.75;99453.78;104562;1275;74215;-23
2022/02/24 05:59:14;;;;;;;6.60;3.20;;;;;;;3.85;78.25;99458.64;104839;1274;61840;-22
2022/02/24 06:01:42;;;;;;;10.70;5.20;;;;;;;3.61;78.92;99456.85;105070;1274;61818;-24
2022/02/24 06:04:10;;;;;;;10.90;3.80;;;;;;;3.35;80.06;99464.88;105000;1274;75555;-24
2022/02/24 06:06:39;;;;;;;7.70;3.30;;;;;;;3.13;81.52;99467.55;105119;1274;74520;-22
2022/02/24 06:09:09;;;;;;;8.80;3.80;;;;;;;3.48;81.06;99470.47;105070;1274;74222;-25
2022/02/24 06:11:38;;;;;;;10.40;5.10;;;;;;;3.89;79.01;99475.83;105098;1274;61055;-24
2022/02/24 06:14:06;;;;;;;10.90;5.40;;;;;;;3.85;79.35;99478.23;104614;1274;61027;-24
2022/02/24 06:16:35;;;;;;;12.30;5.00;;;;;;;3.75;79.20;99482.13;104695;1274;74124;-24
2022/02/24 06:19:03;;;;;;;8.90;5.10;;;;;;;3.48;80.05;99488.34;105016;1274;75303;-24
2022/02/24 06:21:31;;;;;;;18.40;6.50;;;;;;;3.28;81.07;99490.05;104990;1274;74562;-24
2022/02/24 06:24:00;;;;;;;14.70;5.10;;;;;;;3.20;81.45;99493.14;104672;1274;61522;-23
2022/02/24 06:26:28;;;;;;;13.40;4.70;;;;;;;3.68;80.61;99496.70;104778;1274;61998;-23
2022/02/24 06:28:57;;;;;;;9.40;4.70;;;;;;;4.15;78.42;99498.63;104765;1274;75581;-23
2022/02/24 06:31:25;;;;;;;9.10;3.70;;;;;;;4.27;77.12;99505.28;104884;1273;76272;-23
2022/02/24 06:33:56;;;;;;;8.80;3.60;;;;;;;4.13;78.01;99511.95;105035;1274;71531;-23
2022/02/24 06:36:25;;;;;;;7.10;3.70;;;;;;;3.93;78.65;99516.49;105083;1274;61130;-23
2022/02/24 06:38:55;;;;;;;11.60;4.90;;;;;;;3.73;79.44;99521.02;104810;1274;61085;-23
2022/02/24 06:41:25;;;;;;;8.60;4.40;;;;;;;3.56;80.01;99524.73;104788;1275;71581;-23
2022/02/24 06:43:53;;;;;;;10.50;4.50;;;;;;;3.95;79.24;99528.10;104699;1274;75924;-23
2022/02/24 06:46:22;;;;;;;10.70;4.00;;;;;;;4.30;77.72;99531.63;105078;1274;74417;-23
2022/02/24 06:48:51;;;;;;;7.90;4.20;;;;;;;4.37;77.55;99534.08;105133;1274;62168;-23
2022/02/24 06:51:19;;;;;;;8.10;3.70;;;;;;;4.08;77.59;99529.38;105085;1274;61009;-23
2022/02/24 06:53:48;;;;;;;6.80;4.30;;;;;;;3.86;78.46;99536.44;104894;1274;75656;-23
2022/02/24 06:56:16;;;;;;;10.80;4.20;;;;;;;3.74;79.14;99539.88;104834;1274;75705;-23
2022/02/24 06:58:45;;;;;;;11.70;3.70;;;;;;;3.60;79.23;99541.86;105052;1274;72635;-23
2022/02/24 07:01:14;;;;;;;4.70;3.10;;;;;;;4.06;78.78;99542.55;104674;1275;61053;-22
2022/02/24 07:03:43;;;;;;;8.30;3.70;;;;;;;4.58;76.08;99546.76;104795;1274;61083;-23
2022/02/24 07:06:12;;;;;;;7.20;4.00;;;;;;;4.62;75.76;99548.15;104611;1274;72576;-23
2022/02/24 07:08:41;;;;;;;7.00;3.50;;;;;;;4.45;75.95;99552.41;104817;1274;75769;-23
2022/02/24 07:11:09;;;;;;;9.60;4.90;;;;;;;4.09;77.38;99555.29;105061;1274;72467;-23
2022/02/24 07:13:38;;;;;;;5.50;3.50;;;;;;;3.90;78.42;99558.73;104730;1274;61169;-23
2022/02/24 07:16:26;;;;;;;6.50;2.90;;;;;;;3.83;78.13;99561.29;104748;1274;61073;-25
2022/02/24 07:18:55;;;;;;;8.20;3.50;;;;;;;3.75;78.48;99560.27;104952;1274;72818;-22
2022/02/24 07:21:23;;;;;;;6.10;3.10;;;;;;;4.29;77.73;99563.80;105109;1274;76486;-22
2022/02/24 07:23:51;;;;;;;7.50;3.10;;;;;;;4.78;75.60;99562.34;104795;1274;74430;-22
2022/02/24 07:26:19;;;;;;;8.40;2.70;;;;;;;4.96;73.86;99562.85;104701;1274;62425;-22
2022/02/24 07:28:48;;;;;;;11.10;4.00;;;;;;;4.82;73.98;99567.98;104918;1273;61034;-23
2022/02/24 07:31:17;;;;;;;5.30;3.10;;;;;;;4.63;74.68;99570.30;104781;1274;75822;-23
2022/02/24 07:33:46;;;;;;;6.50;3.30;;;;;;;4.06;77.15;99576.23;104610;1274;74315;-23
2022/02/24 07:36:15;;;;;;;8.50;3.80;;;;;;;3.76;78.30;99573.26;104851;1274;74306;-24
2022/02/24 07:38:43;;;;;;;7.60;3.10;;;;;;;3.82;78.24;99576.09;104774;1275;62364;-23
2022/02/24 07:41:11;;;;;;;6.50;3.00;;;;;;;4.19;76.91;99578.85;104906;1274;62461;-23
2022/02/24 07:43:40;;;;;;;7.00;2.70;;;;;;;4.88;74.40;99578.89;104853;1274;75547;-25
2022/02/24 07:46:08;;;;;;;5.10;2.60;;;;;;;5.12;72.98;99579.59;104733;1274;218380;-23
2022/02/24 07:48:37;;;;;;;10.10;3.80;;;;;;;5.11;72.36;99585.98;104729;1274;73340;-23
2022/02/24 07:51:05;;;;;;;10.30;3.20;;;;;;;4.69;73.43;99589.07;104895;1274;62572;-22
2022/02/24 07:53:36;;;;;;;8.00;2.90;;;;;;;4.53;75.36;99591.73;104767;1274;61922;-22
2022/02/24 07:56:05;;;;;;;5.40;2.90;;;;;;;4.51;74.89;99595.10;104637;1273;74572;-24
2022/02/24 07:58:33;;;;;;;9.20;3.50;;;;;;;4.10;75.76;99601.11;104686;1274;76162;-26
2022/02/24 08:01:02;;;;;;;5.80;2.70;;;;;;;4.47;74.92;99600.61;104806;1274;74455;-23
2022/02/24 08:03:31;;;;;;;5.70;3.10;;;;;;;4.74;73.72;99597.27;104836;1274;61171;-23
2022/02/24 08:06:00;;;;;;;4.90;3.60;;;;;;;4.64;73.36;99602.40;104818;1274;61063;-22
2022/02/24 08:08:29;;;;;;;6.60;3.20;;;;;;;4.53;74.13;99602.77;104762;1274;72796;-22
2022/02/24 08:10:57;;;;;;;5.00;2.70;;;;;;;4.42;74.54;99606.86;104777;1274;75803;-22
2022/02/24 08:13:25;;;;;;;8.20;3.10;;;;;;;4.35;74.84;99604.66;104592;1274;74407;-22
2022/02/24 08:16:13;;;;;;;4.50;2.30;;;;;;;4.04;75.98;99608.64;104527;1274;61584;-22
2022/02/24 08:18:42;;;;;;;5.40;3.20;;;;;;;3.65;76.99;99609.48;104663;1274;61160;-22
2022/02/24 08:21:11;;;;;;;7.50;3.30;;;;;;;3.77;77.24;99613.23;104721;1274;75488;-23
2022/02/24 08:23:39;;;;;;;7.10;3.00;;;;;;;4.12;76.30;99615.48;104868;1274;75764;-22
2022/02/24 08:26:08;;;;;;;8.80;3.30;;;;;;;4.18;76.76;99616.57;104719;1274;74350;-22
2022/02/24 08:28:39;;;;;;;5.90;2.70;;;;;;;4.16;77.19;99617.53;104883;1274;61165;-22
2022/02/24 08:31:07;;;;;;;8.20;3.60;;;;;;;4.15;76.87;99617.23;104863;1274;61133;-22
2022/02/24 08:33:36;;;;;;;5.60;2.90;;;;;;;4.07;77.24;99619.64;104597;1274;74514;-22
2022/02/24 08:36:05;;;;;;;5.40;3.20;;;;;;;3.86;77.53;99617.83;104679;1274;75865;-22
2022/02/24 08:38:35;;;;;;;7.10;2.10;;;;;;;3.97;78.08;99617.50;105055;1274;74192;-22
2022/02/24 08:41:23;;;;;;;6.00;2.70;;;;;;;4.60;75.56;99609.82;105075;1274;62312;-22
2022/02/24 08:43:52;;;;;;;6.60;3.40;;;;;;;4.74;74.24;99611.02;104970;1274;61223;-24
2022/02/24 08:46:20;;;;;;;5.30;2.70;;;;;;;4.78;73.76;99608.10;104870;1274;74648;-22
2022/02/24 08:48:49;;;;;;;5.30;2.80;;;;;;;4.93;72.34;99609.98;104851;1274;74904;-22
2022/02/24 08:51:17;;;;;;;6.70;3.10;;;;;;;4.61;73.64;99611.52;104902;1274;74345;-22
2022/02/24 08:53:45;;;;;;;6.30;3.00;;;;;;;4.62;75.08;99614.91;104968;1274;61140;-22
2022/02/24 08:56:16;;;;;;;5.90;3.30;;;;;;;4.70;74.54;99613.80;104752;1274;62388;-24
2022/02/24 08:58:47;;;;;;;8.20;3.30;;;;;;;4.45;74.46;99611.38;104723;1274;75626;-25
2022/02/24 09:01:15;;;;;;;4.90;3.10;;;;;;;4.43;74.25;99606.34;104891;1274;75934;-23
2022/02/24 09:03:44;;;;;;;7.40;3.00;;;;;;;4.39;73.74;99609.41;104820;1274;72243;-23
2022/02/24 09:06:12;;;;;;;8.20;4.30;;;;;;;4.48;74.22;99609.18;104870;1274;61186;-23
2022/02/24 09:08:41;;;;;;;10.90;3.10;;;;;;;4.68;74.09;99603.92;104810;1274;61138;-23
2022/02/24 09:11:10;;;;;;;9.40;3.80;;;;;;;4.48;75.00;99609.51;104624;1274;74180;-23
2022/02/24 09:13:41;;;;;;;7.90;3.90;;;;;;;4.10;76.88;99602.15;104612;1277;76119;-23
2022/02/24 09:16:10;;;;;;;12.60;4.20;;;;;;;3.78;78.19;99605.29;104749;1274;72482;-23
2022/02/24 09:18:38;;;;;;;8.60;3.50;;;;;;;3.66;79.32;99604.61;105100;1273;62351;-23
2022/02/24 09:21:08;;;;;;;6.30;3.70;;;;;;;4.24;77.69;99596.50;105104;1274;61197;-23
2022/02/24 09:23:44;;;;;;;6.70;3.50;;;;;;;4.46;76.64;99596.54;105069;1274;74056;-23
2022/02/24 09:26:13;;;;;;;7.80;3.70;;;;;;;4.64;75.63;99594.69;104867;1274;75822;-22
2022/02/24 09:28:41;;;;;;;8.10;3.80;;;;;;;4.56;75.76;99590.75;105048;1274;74864;-22
2022/02/24 09:31:09;;;;;;;7.30;3.00;;;;;;;4.35;76.24;99590.17;105117;1273;61173;-22
2022/02/24 09:33:39;;;;;;;6.80;3.80;;;;;;;4.59;76.19;99586.14;105002;1274;61820;-22
2022/02/24 09:36:08;;;;;;;6.90;3.30;;;;;;;4.71;75.47;99585.71;104738;1275;74399;-22
2022/02/24 09:38:37;;;;;;;6.90;3.30;;;;;;;5.52;75.92;99589.59;105007;1274;76007;-22
2022/02/24 09:41:06;;;;;;;4.10;2.70;;;;;;;6.03;69.74;99586.27;104746;1274;74405;-22
2022/02/24 09:43:36;;;;;;;5.50;2.60;;;;;;;5.43;70.20;99584.75;104940;1273;62078;-22
2022/02/24 09:46:09;;;;;;;4.10;2.30;;;;;;;5.21;70.58;99587.06;104639;1274;61815;-22
2022/02/24 09:48:41;;;;;;;3.60;2.40;;;;;;;4.99;71.68;99584.02;104648;1274;75690;-22
2022/02/24 09:51:12;;;;;;;4.20;2.40;;;;;;;5.03;71.60;99579.54;104709;1274;75766;-22
2022/02/24 09:53:41;;;;;;;4.60;2.30;;;;;;;4.83;71.94;99575.00;104530;1277;74212;-22
2022/02/24 09:56:18;;;;;;;2.70;1.70;;;;;;;4.67;72.20;99580.45;104731;1275;61279;-22
2022/02/24 09:58:50;;;;;;;4.10;1.80;;;;;;;4.70;72.45;99584.59;104729;1274;61184;-22
2022/02/24 10:01:21;;;;;;;5.40;2.30;;;;;;;5.27;70.91;99577.30;104648;1274;74163;-25
2022/02/24 10:03:54;;;;;;;3.80;1.60;;;;;;;5.72;68.37;99579.62;104989;1274;76000;-23
2022/02/24 10:06:33;;;;;;;4.20;2.30;;;;;;;5.57;69.38;99581.44;104668;1274;74587;-23
2022/02/24 10:09:02;;;;;;;3.70;2.20;;;;;;;5.63;69.47;99581.65;104621;1277;61150;-23
2022/02/24 10:11:32;;;;;;;4.80;2.80;;;;;;;5.42;70.14;99578.95;104601;1276;61187;-23
2022/02/24 10:14:06;;;;;;;5.20;2.60;;;;;;;5.10;70.91;99582.11;104625;1274;75483;-23
2022/02/24 10:16:59;;;;;;;6.90;2.30;;;;;;;5.11;71.44;99584.98;104606;1274;76064;-22
2022/02/24 10:19:44;;;;;;;6.00;2.20;;;;;;;5.16;70.78;99580.24;104677;1274;73408;-22
2022/02/24 10:22:25;;;;;;;4.30;2.60;;;;;;;4.97;71.99;99578.64;104701;1274;61136;-22
2022/02/24 10:24:56;;;;;;;4.70;2.50;;;;;;;4.97;70.86;99574.32;104994;1271;61955;-24
2022/02/24 10:27:29;;;;;;;3.20;1.90;;;;;;;4.96;73.81;99577.98;104736;1271;73794;-21
2022/02/24 10:30:13;;;;;;;3.50;1.80;;;;;;;5.62;69.82;99577.20;104749;1271;76449;-25
2022/02/24 10:32:45;;;;;;;5.90;2.20;;;;;;;5.69;68.56;99575.84;104932;1271;74450;-24
2022/02/24 10:35:37;;;;;;;3.60;2.10;;;;;;;5.57;68.58;99571.81;104695;1274;62100;-22
2022/02/24 10:38:09;;;;;;;4.00;2.00;;;;;;;5.08;70.55;99570.16;104827;1270;61009;-22
2022/02/24 10:40:42;;;;;;;4.80;1.90;;;;;;;5.57;69.05;99569.74;104780;1271;75774;-24
2022/02/24 10:43:20;;;;;;;3.40;2.20;;;;;;;5.90;66.27;99565.08;104684;1274;75662;-24
2022/02/24 10:46:02;;;;;;;4.20;2.70;;;;;;;5.64;65.87;99566.27;104736;1271;73461;-24
2022/02/24 10:48:32;;;;;;;2.80;1.60;;;;;;;5.31;65.69;99565.75;104871;1271;61135;-23
2022/02/24 10:51:05;;;;;;;2.90;1.70;;;;;;;5.06;65.74;99569.05;104721;1270;60979;-22
2022/02/24 10:53:35;;;;;;;4.90;1.50;;;;;;;4.97;66.37;99571.23;104862;1271;74608;-24
2022/02/24 10:56:11;;;;;;;2.20;1.30;;;;;;;4.92;65.64;99571.27;104764;1271;73924;-23
2022/02/24 10:58:41;;;;;;;3.30;1.70;;;;;;;5.45;66.34;99570.65;104737;1271;74537;-23
2022/02/24 11:01:17;;;;;;;6.00;1.70;;;;;;;5.90;65.55;99571.27;104766;1271;61303;-23
2022/02/24 11:03:48;;;;;;;3.50;2.10;;;;;;;6.00;66.12;99570.59;104778;1271;62439;-24
2022/02/24 11:06:24;;;;;;;4.40;2.10;;;;;;;6.65;66.44;99569.13;104732;1274;74602;-23
2022/02/24 11:08:54;;;;;;;2.00;1.50;;;;;;;6.17;65.63;99566.60;104765;1271;73178;-23
2022/02/24 11:11:24;;;;;;;1.90;1.30;;;;;;;6.10;65.34;99569.37;104767;1271;74498;-23
2022/02/24 11:14:06;;;;;;;3.10;2.10;;;;;;;5.52;67.22;99565.19;104686;1273;61131;-23
2022/02/24 11:16:35;;;;;;;2.30;1.70;;;;;;;5.04;69.44;99566.73;104831;1271;61111;-23
2022/02/24 11:19:03;;;;;;;3.40;1.80;;;;;;;5.46;68.72;99564.47;104974;1270;76962;-23
2022/02/24 11:21:47;;;;;;;2.40;1.40;;;;;;;6.12;63.94;99561.98;104895;1270;76498;-23
2022/02/24 11:24:16;;;;;;;2.30;1.30;;;;;;;6.81;61.59;99557.13;104790;1271;74514;-23
2022/02/24 11:27:26;;;;;;;2.70;1.50;;;;;;;6.99;60.36;99552.64;104906;1270;61082;-24
2022/02/24 11:30:03;;;;;;;2.50;1.70;;;;;;;7.41;60.59;99557.45;104844;1271;61868;-23
2022/02/24 11:32:32;;;;;;;2.10;1.30;;;;;;;7.53;57.75;99554.17;104769;1271;73529;-23
2022/02/24 11:35:13;;;;;;;2.90;1.20;;;;;;;7.67;57.13;99551.71;104884;1271;76159;-24
2022/02/24 11:37:50;;;;;;;3.70;1.40;;;;;;;7.44;57.67;99547.95;105065;1271;73211;-23
2022/02/24 11:40:24;;;;;;;2.40;1.20;;;;;;;7.44;57.57;99545.38;104780;1274;62107;-22
2022/02/24 11:43:21;;;;;;;2.00;1.10;;;;;;;7.26;58.50;99547.48;104673;1274;61767;-22
2022/02/24 11:45:51;;;;;;;3.40;1.40;;;;;;;7.69;56.16;99554.07;104762;1271;74148;-22
2022/02/24 11:48:24;;;;;;;1.70;1.20;;;;;;;7.46;56.33;99550.26;104780;1270;74929;-22
2022/02/24 11:51:19;;;;;;;2.30;1.30;;;;;;;7.38;56.52;99546.58;104721;1272;74220;-22
2022/02/24 11:53:49;;;;;;;1.80;1.10;;;;;;;7.19;56.13;99544.78;104803;1271;61060;-22